OMD641 KDTW-KMZJ
Flight info
| Callsign | OMD641 |
|---|---|
| Flight time | N/A |
| Altitude | 34000 |
| Route | KAYLN3 SMUUV OBK LNK KD60A GLD/N0461F360 ALS J102 ZUN KA24Q TUS |
| Aircraft | A320/M-SDE3FGHIRWY/LB1 |
Departure
| Time | 2026-05-06 17:52 |
|---|---|
| Airport | Detroit Metropolitan Wayne County Airport (KDTW) |
Arrival
| Time | N/A |
|---|---|
| Airport | Pinal Airpark (KMZJ) |
| Time | Latitude | Longitude | Altitude | Speed | Heading |
|---|---|---|---|---|---|
| 2026-05-06 17:34 | 42.23314 | -83.34455 | 658 ft | 0 kts | 118° |
| 2026-05-06 17:37 | 42.23314 | -83.34456 | 658 ft | 1 kts | 118° |
| 2026-05-06 17:38 | 42.23320 | -83.34471 | 658 ft | 2 kts | 118° |
| 2026-05-06 17:38 | 42.23329 | -83.34493 | 658 ft | 3 kts | 118° |
| 2026-05-06 17:38 | 42.23339 | -83.34517 | 658 ft | 3 kts | 118° |
| 2026-05-06 17:38 | 42.23349 | -83.34541 | 658 ft | 3 kts | 118° |
| 2026-05-06 17:39 | 42.23350 | -83.34544 | 658 ft | 0 kts | 119° |
| 2026-05-06 17:41 | 42.23345 | -83.34537 | 658 ft | 1 kts | 142° |
| 2026-05-06 17:41 | 42.23335 | -83.34537 | 658 ft | 3 kts | 199° |
| 2026-05-06 17:41 | 42.23311 | -83.34574 | 658 ft | 8 kts | 231° |
| 2026-05-06 17:42 | 42.23255 | -83.34640 | 658 ft | 13 kts | 211° |
| 2026-05-06 17:42 | 42.23161 | -83.34710 | 658 ft | 18 kts | 207° |
| 2026-05-06 17:42 | 42.23067 | -83.34777 | 658 ft | 12 kts | 209° |
| 2026-05-06 17:42 | 42.23039 | -83.34841 | 658 ft | 7 kts | 286° |
| 2026-05-06 17:43 | 42.23034 | -83.34898 | 658 ft | 6 kts | 223° |
| 2026-05-06 17:43 | 42.22993 | -83.34930 | 658 ft | 8 kts | 209° |
| 2026-05-06 17:43 | 42.22937 | -83.34972 | 658 ft | 10 kts | 208° |
| 2026-05-06 17:43 | 42.22868 | -83.35023 | 658 ft | 12 kts | 208° |
| 2026-05-06 17:44 | 42.22791 | -83.35078 | 658 ft | 13 kts | 208° |
| 2026-05-06 17:44 | 42.22710 | -83.35137 | 658 ft | 14 kts | 209° |
| 2026-05-06 17:44 | 42.22622 | -83.35204 | 658 ft | 15 kts | 209° |
| 2026-05-06 17:44 | 42.22525 | -83.35276 | 658 ft | 17 kts | 209° |
| 2026-05-06 17:45 | 42.22420 | -83.35353 | 658 ft | 17 kts | 208° |
| 2026-05-06 17:45 | 42.22312 | -83.35432 | 658 ft | 18 kts | 208° |
| 2026-05-06 17:45 | 42.22200 | -83.35514 | 658 ft | 19 kts | 208° |
| 2026-05-06 17:45 | 42.22092 | -83.35593 | 658 ft | 15 kts | 208° |
| 2026-05-06 17:46 | 42.22011 | -83.35646 | 658 ft | 9 kts | 188° |
| 2026-05-06 17:46 | 42.21964 | -83.35595 | 658 ft | 10 kts | 125° |
| 2026-05-06 17:46 | 42.21919 | -83.35519 | 658 ft | 11 kts | 136° |
| 2026-05-06 17:46 | 42.21850 | -83.35476 | 658 ft | 9 kts | 168° |
| 2026-05-06 17:47 | 42.21822 | -83.35411 | 658 ft | 9 kts | 91° |
| 2026-05-06 17:47 | 42.21823 | -83.35319 | 658 ft | 10 kts | 86° |
| 2026-05-06 17:47 | 42.21781 | -83.35255 | 658 ft | 11 kts | 173° |
| 2026-05-06 17:47 | 42.21705 | -83.35236 | 658 ft | 12 kts | 161° |
| 2026-05-06 17:48 | 42.21631 | -83.35184 | 658 ft | 12 kts | 150° |
| 2026-05-06 17:48 | 42.21555 | -83.35127 | 658 ft | 13 kts | 151° |
| 2026-05-06 17:48 | 42.21472 | -83.35063 | 658 ft | 14 kts | 145° |
| 2026-05-06 17:48 | 42.21387 | -83.34983 | 658 ft | 15 kts | 144° |
| 2026-05-06 17:49 | 42.21316 | -83.34922 | 658 ft | 11 kts | 165° |
| 2026-05-06 17:49 | 42.21242 | -83.34952 | 658 ft | 12 kts | 208° |
| 2026-05-06 17:49 | 42.21168 | -83.35007 | 658 ft | 13 kts | 209° |
| 2026-05-06 17:49 | 42.21089 | -83.35071 | 658 ft | 14 kts | 210° |
| 2026-05-06 17:50 | 42.21003 | -83.35132 | 658 ft | 14 kts | 207° |
| 2026-05-06 17:50 | 42.20915 | -83.35194 | 658 ft | 13 kts | 207° |
| 2026-05-06 17:50 | 42.20849 | -83.35227 | 658 ft | 8 kts | 161° |
| 2026-05-06 17:50 | 42.20817 | -83.35162 | 658 ft | 9 kts | 117° |
| 2026-05-06 17:51 | 42.20805 | -83.35112 | 658 ft | 4 kts | 72° |
| 2026-05-06 17:51 | 42.20827 | -83.35088 | 658 ft | 0 kts | 28° |
| 2026-05-06 17:51 | 42.20828 | -83.35088 | 658 ft | 1 kts | 28° |
| 2026-05-06 17:51 | 42.20953 | -83.34997 | 658 ft | 56 kts | 28° |
| 2026-05-06 17:52 | 42.21517 | -83.34580 | 658 ft | 129 kts | 30° |
| 2026-05-06 17:52 | 42.22487 | -83.33854 | 803 ft | 184 kts | 27° |
| 2026-05-06 17:52 | 42.23658 | -83.32987 | 1318 ft | 197 kts | 26° |
| 2026-05-06 17:52 | 42.24865 | -83.32078 | 1952 ft | 199 kts | 26° |
| 2026-05-06 17:53 | 42.26103 | -83.31234 | 2627 ft | 200 kts | 14° |
| 2026-05-06 17:53 | 42.27478 | -83.31307 | 3348 ft | 201 kts | 345° |
| 2026-05-06 17:53 | 42.28795 | -83.31993 | 4083 ft | 205 kts | 334° |
| 2026-05-06 17:53 | 42.30087 | -83.32806 | 4785 ft | 205 kts | 333° |
| 2026-05-06 17:54 | 42.31362 | -83.33619 | 5472 ft | 205 kts | 332° |
| 2026-05-06 17:54 | 42.32659 | -83.34439 | 6177 ft | 206 kts | 333° |
| 2026-05-06 17:54 | 42.33964 | -83.35252 | 6885 ft | 207 kts | 333° |
| 2026-05-06 17:54 | 42.34507 | -83.35586 | 7174 ft | 208 kts | 332° |
| 2026-05-06 17:55 | 42.35834 | -83.36398 | 7875 ft | 210 kts | 331° |
| 2026-05-06 17:55 | 42.36953 | -83.37623 | 8534 ft | 209 kts | 305° |
| 2026-05-06 17:55 | 42.37376 | -83.39503 | 9250 ft | 218 kts | 274° |
| 2026-05-06 17:55 | 42.37093 | -83.41611 | 10016 ft | 238 kts | 258° |
| 2026-05-06 17:56 | 42.36793 | -83.43856 | 10728 ft | 246 kts | 262° |
| 2026-05-06 17:56 | 42.36592 | -83.46177 | 11438 ft | 250 kts | 263° |
| 2026-05-06 17:56 | 42.36462 | -83.48546 | 12089 ft | 257 kts | 265° |
| 2026-05-06 17:56 | 42.36386 | -83.51064 | 12656 ft | 279 kts | 266° |
| 2026-05-06 17:57 | 42.36357 | -83.53769 | 13218 ft | 294 kts | 267° |
| 2026-05-06 17:57 | 42.36373 | -83.56583 | 13775 ft | 303 kts | 268° |
| 2026-05-06 17:57 | 42.36432 | -83.59467 | 14330 ft | 309 kts | 269° |
| 2026-05-06 17:57 | 42.36518 | -83.62390 | 14882 ft | 313 kts | 269° |
| 2026-05-06 17:58 | 42.36617 | -83.65350 | 15436 ft | 316 kts | 269° |
| 2026-05-06 17:58 | 42.36731 | -83.68299 | 15982 ft | 319 kts | 270° |
| 2026-05-06 17:58 | 42.36858 | -83.71301 | 16533 ft | 321 kts | 270° |
| 2026-05-06 17:58 | 42.36994 | -83.74330 | 17086 ft | 323 kts | 270° |
| 2026-05-06 17:59 | 42.37134 | -83.77377 | 17639 ft | 325 kts | 270° |
| 2026-05-06 17:59 | 42.37279 | -83.80439 | 18191 ft | 327 kts | 270° |
| 2026-05-06 17:59 | 42.37429 | -83.83523 | 18744 ft | 329 kts | 270° |
| 2026-05-06 17:59 | 42.37580 | -83.86623 | 19296 ft | 331 kts | 270° |
| 2026-05-06 18:00 | 42.37733 | -83.89747 | 19849 ft | 333 kts | 270° |
| 2026-05-06 18:00 | 42.37886 | -83.92878 | 20400 ft | 335 kts | 270° |
| 2026-05-06 18:00 | 42.38039 | -83.95988 | 20945 ft | 337 kts | 270° |
| 2026-05-06 18:00 | 42.38196 | -83.99162 | 21498 ft | 339 kts | 270° |
| 2026-05-06 18:01 | 42.38352 | -84.02347 | 22050 ft | 340 kts | 270° |
| 2026-05-06 18:01 | 42.38507 | -84.05551 | 22602 ft | 342 kts | 270° |
| 2026-05-06 18:01 | 42.38662 | -84.08771 | 23155 ft | 343 kts | 270° |
| 2026-05-06 18:01 | 42.38816 | -84.11999 | 23707 ft | 344 kts | 270° |
| 2026-05-06 18:02 | 42.38970 | -84.15243 | 24260 ft | 346 kts | 270° |
| 2026-05-06 18:02 | 42.39125 | -84.18500 | 24812 ft | 348 kts | 270° |
| 2026-05-06 18:02 | 42.39281 | -84.21774 | 25364 ft | 349 kts | 270° |
| 2026-05-06 18:02 | 42.39440 | -84.25059 | 25915 ft | 351 kts | 270° |
| 2026-05-06 18:03 | 42.39594 | -84.28368 | 26466 ft | 353 kts | 270° |
| 2026-05-06 18:03 | 42.39743 | -84.31650 | 26976 ft | 355 kts | 269° |
| 2026-05-06 18:03 | 42.39891 | -84.34983 | 27480 ft | 356 kts | 269° |
| 2026-05-06 18:03 | 42.40038 | -84.38342 | 27980 ft | 358 kts | 269° |
| 2026-05-06 18:04 | 42.40186 | -84.41713 | 28481 ft | 360 kts | 269° |
| 2026-05-06 18:04 | 42.40341 | -84.45099 | 28982 ft | 361 kts | 269° |
| 2026-05-06 18:04 | 42.40502 | -84.48490 | 29484 ft | 362 kts | 269° |
| 2026-05-06 18:04 | 42.40656 | -84.51890 | 29984 ft | 363 kts | 269° |
| 2026-05-06 18:05 | 42.40809 | -84.55310 | 30486 ft | 364 kts | 269° |
| 2026-05-06 18:05 | 42.40960 | -84.58722 | 30987 ft | 362 kts | 269° |
| 2026-05-06 18:05 | 42.41112 | -84.62117 | 31487 ft | 361 kts | 269° |
| 2026-05-06 18:05 | 42.41262 | -84.65504 | 31972 ft | 359 kts | 270° |
| 2026-05-06 18:06 | 42.41410 | -84.68875 | 32430 ft | 358 kts | 270° |
| 2026-05-06 18:06 | 42.41555 | -84.72230 | 32882 ft | 355 kts | 270° |
| 2026-05-06 18:06 | 42.41695 | -84.75554 | 33297 ft | 354 kts | 270° |
| 2026-05-06 18:06 | 42.41829 | -84.78826 | 33582 ft | 351 kts | 270° |
| 2026-05-06 18:07 | 42.41959 | -84.82107 | 33796 ft | 348 kts | 270° |
| 2026-05-06 18:07 | 42.42091 | -84.85419 | 33922 ft | 346 kts | 270° |
| 2026-05-06 18:07 | 42.42346 | -84.91888 | 33986 ft | 348 kts | 270° |
| 2026-05-06 18:08 | 42.42565 | -84.97419 | 33986 ft | 352 kts | 270° |
| 2026-05-06 18:08 | 42.42738 | -85.01815 | 33986 ft | 353 kts | 270° |
| 2026-05-06 18:09 | 42.42995 | -85.08460 | 33986 ft | 354 kts | 270° |
| 2026-05-06 18:09 | 42.43251 | -85.15126 | 33987 ft | 354 kts | 270° |
| 2026-05-06 18:10 | 42.43509 | -85.21795 | 33987 ft | 355 kts | 270° |
| 2026-05-06 18:10 | 42.43772 | -85.28475 | 33989 ft | 355 kts | 270° |
| 2026-05-06 18:11 | 42.43994 | -85.34024 | 33989 ft | 355 kts | 270° |
| 2026-05-06 18:11 | 42.44214 | -85.39887 | 33990 ft | 354 kts | 270° |
| 2026-05-06 18:12 | 42.44454 | -85.46552 | 33992 ft | 354 kts | 270° |
| 2026-05-06 18:12 | 42.44687 | -85.53212 | 33993 ft | 354 kts | 270° |
| 2026-05-06 18:13 | 42.44915 | -85.59875 | 33997 ft | 353 kts | 270° |
| 2026-05-06 18:13 | 42.45145 | -85.66483 | 34001 ft | 353 kts | 270° |
| 2026-05-06 18:14 | 42.45369 | -85.73131 | 34009 ft | 353 kts | 270° |
| 2026-05-06 18:14 | 42.45585 | -85.79773 | 34016 ft | 352 kts | 270° |
| 2026-05-06 18:15 | 42.45806 | -85.86389 | 34004 ft | 350 kts | 269° |
| 2026-05-06 18:15 | 42.46017 | -85.92941 | 34015 ft | 347 kts | 269° |
| 2026-05-06 18:16 | 42.46185 | -85.98357 | 34016 ft | 345 kts | 269° |
| 2026-05-06 18:16 | 42.46414 | -86.05900 | 34019 ft | 345 kts | 269° |
| 2026-05-06 18:17 | 42.46599 | -86.12387 | 34023 ft | 344 kts | 268° |
| 2026-05-06 18:17 | 42.46111 | -86.17754 | 34028 ft | 343 kts | 259° |
| 2026-05-06 18:18 | 42.45256 | -86.24106 | 34027 ft | 343 kts | 259° |
| 2026-05-06 18:18 | 42.44428 | -86.30426 | 34028 ft | 343 kts | 259° |
| 2026-05-06 18:19 | 42.43604 | -86.36780 | 34028 ft | 343 kts | 260° |
| 2026-05-06 18:19 | 42.42780 | -86.43146 | 34028 ft | 344 kts | 259° |
| 2026-05-06 18:20 | 42.41951 | -86.49523 | 34025 ft | 344 kts | 259° |
| 2026-05-06 18:20 | 42.41119 | -86.55904 | 34027 ft | 344 kts | 259° |
| 2026-05-06 18:21 | 42.40282 | -86.62297 | 34025 ft | 345 kts | 259° |
| 2026-05-06 18:21 | 42.39440 | -86.68699 | 34025 ft | 345 kts | 259° |
| 2026-05-06 18:22 | 42.38595 | -86.75068 | 34025 ft | 346 kts | 259° |
| 2026-05-06 18:22 | 42.37746 | -86.81489 | 34024 ft | 347 kts | 259° |
| 2026-05-06 18:23 | 42.36901 | -86.87911 | 34021 ft | 347 kts | 259° |
| 2026-05-06 18:23 | 42.36059 | -86.94346 | 34018 ft | 347 kts | 259° |
| 2026-05-06 18:24 | 42.35205 | -87.00781 | 34017 ft | 348 kts | 259° |
| 2026-05-06 18:24 | 42.34339 | -87.07215 | 34018 ft | 348 kts | 259° |
| 2026-05-06 18:25 | 42.33472 | -87.13604 | 34017 ft | 348 kts | 259° |
| 2026-05-06 18:25 | 42.32587 | -87.20039 | 34013 ft | 348 kts | 259° |
| 2026-05-06 18:26 | 42.31704 | -87.26471 | 34010 ft | 348 kts | 259° |
| 2026-05-06 18:26 | 42.30819 | -87.32905 | 34008 ft | 348 kts | 259° |
| 2026-05-06 18:27 | 42.29935 | -87.39336 | 34006 ft | 348 kts | 259° |
| 2026-05-06 18:27 | 42.29062 | -87.45726 | 34003 ft | 347 kts | 259° |
| 2026-05-06 18:28 | 42.28191 | -87.52144 | 34002 ft | 347 kts | 259° |
| 2026-05-06 18:28 | 42.27308 | -87.58551 | 34001 ft | 347 kts | 259° |
| 2026-05-06 18:29 | 42.26412 | -87.64961 | 34000 ft | 346 kts | 258° |
| 2026-05-06 18:29 | 42.25512 | -87.71351 | 34000 ft | 346 kts | 258° |
| 2026-05-06 18:30 | 42.24615 | -87.77689 | 34001 ft | 345 kts | 258° |
| 2026-05-06 18:30 | 42.23709 | -87.84055 | 34002 ft | 345 kts | 258° |
| 2026-05-06 18:31 | 42.22801 | -87.90414 | 34004 ft | 345 kts | 258° |
| 2026-05-06 18:31 | 42.21938 | -87.96784 | 34006 ft | 345 kts | 260° |
| 2026-05-06 18:32 | 42.21250 | -88.03191 | 34005 ft | 345 kts | 261° |
| 2026-05-06 18:32 | 42.20557 | -88.09597 | 34002 ft | 345 kts | 261° |
| 2026-05-06 18:33 | 42.20077 | -88.14028 | 34002 ft | 345 kts | 261° |
| 2026-05-06 18:33 | 42.19385 | -88.20433 | 34004 ft | 345 kts | 261° |
| 2026-05-06 18:34 | 42.18698 | -88.26837 | 34004 ft | 345 kts | 261° |
| 2026-05-06 18:34 | 42.18005 | -88.33241 | 34009 ft | 345 kts | 260° |
| 2026-05-06 18:35 | 42.17296 | -88.39654 | 34016 ft | 346 kts | 260° |
| 2026-05-06 18:35 | 42.16578 | -88.46076 | 34019 ft | 347 kts | 260° |
| 2026-05-06 18:36 | 42.15854 | -88.52509 | 34021 ft | 347 kts | 260° |
| 2026-05-06 18:36 | 42.15124 | -88.58956 | 34024 ft | 348 kts | 260° |
| 2026-05-06 18:37 | 42.14390 | -88.65408 | 34027 ft | 349 kts | 260° |
| 2026-05-06 18:37 | 42.13649 | -88.71880 | 34028 ft | 350 kts | 260° |
| 2026-05-06 18:38 | 42.12913 | -88.78328 | 34032 ft | 351 kts | 260° |
| 2026-05-06 18:38 | 42.12174 | -88.84841 | 34033 ft | 352 kts | 260° |
| 2026-05-06 18:39 | 42.11433 | -88.91363 | 34035 ft | 352 kts | 260° |
| 2026-05-06 18:40 | 42.10296 | -89.01172 | 34037 ft | 353 kts | 260° |
| 2026-05-06 18:40 | 42.09528 | -89.07714 | 34037 ft | 354 kts | 260° |
| 2026-05-06 18:41 | 42.08753 | -89.14267 | 34040 ft | 355 kts | 260° |
| 2026-05-06 18:41 | 42.07978 | -89.20791 | 34042 ft | 355 kts | 260° |
| 2026-05-06 18:42 | 42.07192 | -89.27362 | 34042 ft | 356 kts | 259° |
| 2026-05-06 18:42 | 42.06403 | -89.33932 | 34046 ft | 356 kts | 259° |
| 2026-05-06 18:43 | 42.05615 | -89.40510 | 34049 ft | 356 kts | 259° |
| 2026-05-06 18:43 | 42.04832 | -89.47096 | 34052 ft | 356 kts | 259° |
| 2026-05-06 18:44 | 42.04046 | -89.53677 | 34053 ft | 356 kts | 259° |
| 2026-05-06 18:44 | 42.03246 | -89.60255 | 34056 ft | 356 kts | 259° |
| 2026-05-06 18:45 | 42.02444 | -89.66788 | 34061 ft | 356 kts | 259° |
| 2026-05-06 18:45 | 42.01632 | -89.73360 | 34065 ft | 356 kts | 259° |
| 2026-05-06 18:46 | 42.00815 | -89.79926 | 34066 ft | 355 kts | 259° |
| 2026-05-06 18:46 | 41.99996 | -89.86485 | 34067 ft | 355 kts | 259° |
| 2026-05-06 18:47 | 41.99178 | -89.92998 | 34068 ft | 355 kts | 259° |
| 2026-05-06 18:47 | 41.98351 | -89.99546 | 34068 ft | 355 kts | 259° |
| 2026-05-06 18:48 | 41.97523 | -90.06088 | 34069 ft | 355 kts | 259° |
| 2026-05-06 18:48 | 41.96695 | -90.12641 | 34066 ft | 355 kts | 259° |
| 2026-05-06 18:49 | 41.95872 | -90.19184 | 34069 ft | 355 kts | 259° |
| 2026-05-06 18:49 | 41.95055 | -90.25720 | 34069 ft | 355 kts | 259° |
| 2026-05-06 18:50 | 41.94228 | -90.32211 | 34069 ft | 354 kts | 259° |
| 2026-05-06 18:50 | 41.93386 | -90.38728 | 34070 ft | 354 kts | 259° |
| 2026-05-06 18:51 | 41.92541 | -90.45223 | 34070 ft | 353 kts | 259° |
| 2026-05-06 18:51 | 41.91691 | -90.51712 | 34071 ft | 352 kts | 259° |
| 2026-05-06 18:52 | 41.90839 | -90.58180 | 34072 ft | 351 kts | 259° |
| 2026-05-06 18:52 | 41.89986 | -90.64636 | 34078 ft | 351 kts | 259° |
| 2026-05-06 18:53 | 41.89131 | -90.71076 | 34080 ft | 350 kts | 259° |
| 2026-05-06 18:53 | 41.88283 | -90.77459 | 34082 ft | 349 kts | 258° |
| 2026-05-06 18:54 | 41.87431 | -90.83885 | 34083 ft | 349 kts | 259° |
| 2026-05-06 18:54 | 41.86719 | -90.89296 | 34084 ft | 348 kts | 258° |
| 2026-05-06 18:55 | 41.85869 | -90.95689 | 34084 ft | 348 kts | 258° |
| 2026-05-06 18:55 | 41.85006 | -91.02088 | 34085 ft | 348 kts | 258° |
| 2026-05-06 18:56 | 41.84138 | -91.08471 | 34085 ft | 348 kts | 258° |
| 2026-05-06 18:56 | 41.83264 | -91.14870 | 34089 ft | 348 kts | 258° |
| 2026-05-06 18:57 | 41.82392 | -91.21224 | 34102 ft | 349 kts | 258° |
| 2026-05-06 18:57 | 41.81508 | -91.27634 | 34106 ft | 350 kts | 258° |
| 2026-05-06 18:58 | 41.80620 | -91.34047 | 34109 ft | 350 kts | 258° |
| 2026-05-06 18:58 | 41.79728 | -91.40483 | 34111 ft | 351 kts | 258° |
| 2026-05-06 18:59 | 41.78838 | -91.46934 | 34112 ft | 352 kts | 258° |
| 2026-05-06 18:59 | 41.77951 | -91.53403 | 34113 ft | 354 kts | 258° |
| 2026-05-06 19:00 | 41.77048 | -91.59892 | 34113 ft | 355 kts | 258° |
| 2026-05-06 19:00 | 41.76131 | -91.66399 | 34111 ft | 356 kts | 258° |
| 2026-05-06 19:01 | 41.75206 | -91.72924 | 34110 ft | 357 kts | 258° |
| 2026-05-06 19:01 | 41.74280 | -91.79420 | 34110 ft | 358 kts | 258° |
| 2026-05-06 19:02 | 41.73340 | -91.85976 | 34110 ft | 359 kts | 258° |
| 2026-05-06 19:02 | 41.72396 | -91.92539 | 34110 ft | 359 kts | 258° |
| 2026-05-06 19:03 | 41.71607 | -91.98001 | 34112 ft | 360 kts | 258° |
| 2026-05-06 19:03 | 41.70655 | -92.04581 | 34115 ft | 360 kts | 258° |
| 2026-05-06 19:04 | 41.69705 | -92.11161 | 34120 ft | 360 kts | 258° |
| 2026-05-06 19:04 | 41.68761 | -92.17739 | 34123 ft | 360 kts | 258° |
| 2026-05-06 19:05 | 41.67815 | -92.24316 | 34126 ft | 359 kts | 258° |
| 2026-05-06 19:05 | 41.66855 | -92.30875 | 34130 ft | 359 kts | 257° |
| 2026-05-06 19:06 | 41.65889 | -92.37412 | 34132 ft | 358 kts | 257° |
| 2026-05-06 19:06 | 41.64918 | -92.43941 | 34134 ft | 357 kts | 257° |
| 2026-05-06 19:07 | 41.63950 | -92.50417 | 34124 ft | 356 kts | 257° |
| 2026-05-06 19:07 | 41.62977 | -92.56899 | 34135 ft | 355 kts | 257° |
| 2026-05-06 19:08 | 41.62001 | -92.63373 | 34138 ft | 354 kts | 257° |
| 2026-05-06 19:08 | 41.61027 | -92.69822 | 34138 ft | 354 kts | 257° |
| 2026-05-06 19:09 | 41.60057 | -92.76255 | 34138 ft | 353 kts | 257° |
| 2026-05-06 19:09 | 41.59091 | -92.82687 | 34136 ft | 352 kts | 257° |
| 2026-05-06 19:10 | 41.58132 | -92.89095 | 34133 ft | 352 kts | 257° |
| 2026-05-06 19:10 | 41.57160 | -92.95501 | 34133 ft | 351 kts | 257° |
| 2026-05-06 19:11 | 41.56183 | -93.01861 | 34131 ft | 351 kts | 257° |
| 2026-05-06 19:11 | 41.55194 | -93.08260 | 34132 ft | 351 kts | 257° |
| 2026-05-06 19:12 | 41.54202 | -93.14647 | 34133 ft | 351 kts | 257° |
| 2026-05-06 19:12 | 41.53211 | -93.21005 | 34129 ft | 352 kts | 257° |
| 2026-05-06 19:13 | 41.52209 | -93.27406 | 34131 ft | 352 kts | 257° |
| 2026-05-06 19:13 | 41.51202 | -93.33815 | 34132 ft | 353 kts | 257° |
| 2026-05-06 19:14 | 41.50190 | -93.40231 | 34134 ft | 354 kts | 257° |
| 2026-05-06 19:14 | 41.49173 | -93.46658 | 34134 ft | 354 kts | 257° |
| 2026-05-06 19:15 | 41.48151 | -93.53107 | 34130 ft | 355 kts | 257° |
| 2026-05-06 19:15 | 41.47137 | -93.59522 | 34130 ft | 356 kts | 257° |
| 2026-05-06 19:16 | 41.46118 | -93.65998 | 34130 ft | 357 kts | 257° |
| 2026-05-06 19:16 | 41.45097 | -93.72479 | 34129 ft | 357 kts | 257° |
| 2026-05-06 19:17 | 41.44058 | -93.78965 | 34129 ft | 358 kts | 257° |
| 2026-05-06 19:17 | 41.43014 | -93.85425 | 34129 ft | 358 kts | 257° |
| 2026-05-06 19:18 | 41.41959 | -93.91913 | 34129 ft | 359 kts | 257° |
| 2026-05-06 19:18 | 41.40897 | -93.98419 | 34129 ft | 359 kts | 257° |
| 2026-05-06 19:19 | 41.39833 | -94.04916 | 34129 ft | 359 kts | 257° |
| 2026-05-06 19:19 | 41.38762 | -94.11430 | 34127 ft | 360 kts | 257° |
| 2026-05-06 19:20 | 41.37692 | -94.17914 | 34129 ft | 361 kts | 256° |
| 2026-05-06 19:20 | 41.36610 | -94.24435 | 34130 ft | 360 kts | 256° |
| 2026-05-06 19:21 | 41.35529 | -94.30948 | 34130 ft | 360 kts | 256° |
| 2026-05-06 19:21 | 41.34451 | -94.37458 | 34130 ft | 360 kts | 256° |
| 2026-05-06 19:22 | 41.33379 | -94.43960 | 34133 ft | 359 kts | 257° |
| 2026-05-06 19:22 | 41.32309 | -94.50447 | 34134 ft | 358 kts | 256° |
| 2026-05-06 19:23 | 41.31231 | -94.56877 | 34135 ft | 358 kts | 256° |
| 2026-05-06 19:23 | 41.30139 | -94.63332 | 34136 ft | 358 kts | 256° |
| 2026-05-06 19:24 | 41.29043 | -94.69779 | 34136 ft | 357 kts | 256° |
| 2026-05-06 19:24 | 41.27943 | -94.76227 | 34137 ft | 357 kts | 256° |
| 2026-05-06 19:25 | 41.26838 | -94.82678 | 34138 ft | 357 kts | 256° |
| 2026-05-06 19:25 | 41.25732 | -94.89112 | 34140 ft | 357 kts | 256° |
| 2026-05-06 19:26 | 41.24623 | -94.95546 | 34140 ft | 357 kts | 256° |
| 2026-05-06 19:26 | 41.23507 | -95.01989 | 34140 ft | 358 kts | 256° |
| 2026-05-06 19:27 | 41.22404 | -95.08389 | 34144 ft | 358 kts | 256° |
| 2026-05-06 19:27 | 41.21455 | -95.13852 | 34145 ft | 358 kts | 256° |
| 2026-05-06 19:28 | 41.20331 | -95.20292 | 34144 ft | 358 kts | 256° |
| 2026-05-06 19:28 | 41.19202 | -95.26743 | 34146 ft | 359 kts | 256° |
| 2026-05-06 19:29 | 41.18075 | -95.33203 | 34146 ft | 359 kts | 256° |
| 2026-05-06 19:29 | 41.16951 | -95.39665 | 34145 ft | 359 kts | 256° |
| 2026-05-06 19:30 | 41.15833 | -95.46087 | 34143 ft | 360 kts | 256° |
| 2026-05-06 19:30 | 41.14690 | -95.52554 | 34136 ft | 360 kts | 256° |
| 2026-05-06 19:31 | 41.13537 | -95.59024 | 34135 ft | 360 kts | 256° |
| 2026-05-06 19:31 | 41.11804 | -95.68689 | 34134 ft | 360 kts | 256° |
| 2026-05-06 19:32 | 41.10647 | -95.75111 | 34136 ft | 360 kts | 256° |
| 2026-05-06 19:32 | 41.09479 | -95.81574 | 34139 ft | 360 kts | 256° |
| 2026-05-06 19:33 | 41.08309 | -95.88027 | 34140 ft | 360 kts | 256° |
| 2026-05-06 19:33 | 41.07134 | -95.94485 | 34140 ft | 360 kts | 256° |
| 2026-05-06 19:34 | 41.05965 | -96.00891 | 34143 ft | 360 kts | 256° |
| 2026-05-06 19:34 | 41.04789 | -96.07358 | 34145 ft | 362 kts | 256° |
| 2026-05-06 19:35 | 41.03594 | -96.13870 | 34146 ft | 364 kts | 256° |
| 2026-05-06 19:35 | 41.02392 | -96.20396 | 34150 ft | 365 kts | 256° |
| 2026-05-06 19:36 | 41.01188 | -96.26932 | 34151 ft | 365 kts | 256° |
| 2026-05-06 19:36 | 40.99999 | -96.33427 | 34152 ft | 365 kts | 256° |
| 2026-05-06 19:37 | 40.98796 | -96.39976 | 34154 ft | 365 kts | 256° |
| 2026-05-06 19:37 | 40.97788 | -96.45401 | 34155 ft | 365 kts | 256° |
| 2026-05-06 19:38 | 40.96356 | -96.53045 | 34157 ft | 365 kts | 256° |
| 2026-05-06 19:38 | 40.95127 | -96.59573 | 34161 ft | 365 kts | 256° |
| 2026-05-06 19:39 | 40.93894 | -96.66103 | 34165 ft | 366 kts | 255° |
| 2026-05-06 19:39 | 40.92665 | -96.72590 | 34167 ft | 366 kts | 255° |
| 2026-05-06 19:40 | 40.91136 | -96.79013 | 34171 ft | 367 kts | 251° |
| 2026-05-06 19:40 | 40.89700 | -96.84352 | 34169 ft | 367 kts | 251° |
| 2026-05-06 19:41 | 40.87992 | -96.90711 | 34168 ft | 367 kts | 251° |
| 2026-05-06 19:41 | 40.86278 | -96.97083 | 34167 ft | 368 kts | 251° |
| 2026-05-06 19:42 | 40.84560 | -97.03457 | 34167 ft | 368 kts | 251° |
| 2026-05-06 19:42 | 40.82846 | -97.09804 | 34167 ft | 369 kts | 251° |
| 2026-05-06 19:43 | 40.81118 | -97.16185 | 34167 ft | 369 kts | 251° |
| 2026-05-06 19:43 | 40.79381 | -97.22581 | 34166 ft | 370 kts | 251° |
| 2026-05-06 19:44 | 40.77641 | -97.28975 | 34165 ft | 370 kts | 251° |
| 2026-05-06 19:44 | 40.75896 | -97.35372 | 34164 ft | 371 kts | 251° |
| 2026-05-06 19:45 | 40.74155 | -97.41743 | 34163 ft | 371 kts | 251° |
| 2026-05-06 19:45 | 40.72406 | -97.48150 | 34163 ft | 371 kts | 251° |
| 2026-05-06 19:46 | 40.70666 | -97.54569 | 34162 ft | 371 kts | 251° |
| 2026-05-06 19:46 | 40.68912 | -97.60980 | 34162 ft | 372 kts | 250° |
| 2026-05-06 19:47 | 40.67141 | -97.67401 | 34162 ft | 372 kts | 250° |
| 2026-05-06 19:47 | 40.65368 | -97.73807 | 34163 ft | 372 kts | 250° |
| 2026-05-06 19:48 | 40.63591 | -97.80207 | 34164 ft | 372 kts | 250° |
| 2026-05-06 19:48 | 40.61817 | -97.86561 | 34165 ft | 372 kts | 250° |
| 2026-05-06 19:49 | 40.60031 | -97.92957 | 34165 ft | 372 kts | 250° |
| 2026-05-06 19:49 | 40.58248 | -97.99355 | 34164 ft | 372 kts | 250° |
| 2026-05-06 19:50 | 40.56468 | -98.05757 | 34170 ft | 373 kts | 250° |
| 2026-05-06 19:50 | 40.54987 | -98.11096 | 34173 ft | 374 kts | 250° |
| 2026-05-06 19:51 | 40.53189 | -98.17519 | 34175 ft | 374 kts | 250° |
| 2026-05-06 19:51 | 40.51374 | -98.23955 | 34176 ft | 375 kts | 250° |
| 2026-05-06 19:52 | 40.49556 | -98.30377 | 34177 ft | 375 kts | 250° |
| 2026-05-06 19:52 | 40.47733 | -98.36799 | 34179 ft | 375 kts | 250° |
| 2026-05-06 19:53 | 40.45904 | -98.43227 | 34179 ft | 375 kts | 250° |
| 2026-05-06 19:53 | 40.44086 | -98.49617 | 34180 ft | 376 kts | 250° |
| 2026-05-06 19:54 | 40.42250 | -98.56050 | 34180 ft | 376 kts | 250° |
| 2026-05-06 19:54 | 40.40409 | -98.62476 | 34181 ft | 377 kts | 250° |
| 2026-05-06 19:55 | 40.38556 | -98.68922 | 34181 ft | 377 kts | 250° |
| 2026-05-06 19:55 | 40.36715 | -98.75324 | 34180 ft | 377 kts | 250° |
| 2026-05-06 19:56 | 40.34860 | -98.81763 | 34183 ft | 378 kts | 250° |
| 2026-05-06 19:56 | 40.32989 | -98.88225 | 34185 ft | 379 kts | 250° |
| 2026-05-06 19:57 | 40.31115 | -98.94683 | 34184 ft | 379 kts | 250° |
| 2026-05-06 19:57 | 40.29254 | -99.01102 | 34175 ft | 379 kts | 250° |
| 2026-05-06 19:58 | 40.27371 | -99.07569 | 34173 ft | 380 kts | 250° |
| 2026-05-06 19:58 | 40.25484 | -99.14032 | 34172 ft | 380 kts | 250° |
| 2026-05-06 19:59 | 40.23597 | -99.20504 | 34171 ft | 380 kts | 250° |
| 2026-05-06 19:59 | 40.21714 | -99.26971 | 34171 ft | 380 kts | 250° |
| 2026-05-06 20:00 | 40.19846 | -99.33390 | 34169 ft | 380 kts | 250° |
| 2026-05-06 20:00 | 40.17951 | -99.39839 | 34172 ft | 380 kts | 250° |
| 2026-05-06 20:01 | 40.16045 | -99.46284 | 34174 ft | 380 kts | 250° |
| 2026-05-06 20:01 | 40.14136 | -99.52720 | 34177 ft | 380 kts | 250° |
| 2026-05-06 20:02 | 40.12224 | -99.59151 | 34180 ft | 379 kts | 250° |
| 2026-05-06 20:02 | 40.10310 | -99.65570 | 34182 ft | 379 kts | 250° |
| 2026-05-06 20:03 | 40.08393 | -99.71984 | 34183 ft | 379 kts | 250° |
| 2026-05-06 20:03 | 40.06487 | -99.78349 | 34185 ft | 378 kts | 250° |
| 2026-05-06 20:04 | 40.04565 | -99.84747 | 34184 ft | 378 kts | 250° |
| 2026-05-06 20:04 | 40.02644 | -99.91130 | 34186 ft | 378 kts | 250° |
| 2026-05-06 20:05 | 40.00719 | -99.97513 | 34187 ft | 378 kts | 250° |
| 2026-05-06 20:05 | 39.98665 | -100.03822 | 34190 ft | 378 kts | 247° |
| 2026-05-06 20:06 | 39.96471 | -100.10052 | 34188 ft | 378 kts | 247° |
| 2026-05-06 20:06 | 39.94267 | -100.16242 | 34189 ft | 378 kts | 246° |
| 2026-05-06 20:07 | 39.92055 | -100.22461 | 34192 ft | 378 kts | 247° |
| 2026-05-06 20:07 | 39.89845 | -100.28678 | 34192 ft | 378 kts | 246° |
| 2026-05-06 20:08 | 39.87644 | -100.34897 | 34196 ft | 378 kts | 247° |
| 2026-05-06 20:08 | 39.85450 | -100.41119 | 34197 ft | 378 kts | 246° |
| 2026-05-06 20:09 | 39.83243 | -100.47325 | 34199 ft | 378 kts | 246° |
| 2026-05-06 20:09 | 39.81016 | -100.53538 | 34199 ft | 378 kts | 246° |
| 2026-05-06 20:10 | 39.78803 | -100.59692 | 34200 ft | 378 kts | 246° |
| 2026-05-06 20:10 | 39.76571 | -100.65891 | 34204 ft | 378 kts | 246° |
| 2026-05-06 20:11 | 39.74333 | -100.72098 | 34212 ft | 379 kts | 246° |
| 2026-05-06 20:11 | 39.72541 | -100.77068 | 34219 ft | 379 kts | 246° |
| 2026-05-06 20:12 | 39.70304 | -100.83277 | 34226 ft | 380 kts | 246° |
| 2026-05-06 20:12 | 39.68066 | -100.89501 | 34230 ft | 380 kts | 246° |
| 2026-05-06 20:13 | 39.65812 | -100.95725 | 34231 ft | 381 kts | 246° |
| 2026-05-06 20:13 | 39.63559 | -101.01911 | 34230 ft | 382 kts | 245° |
| 2026-05-06 20:14 | 39.61284 | -101.08145 | 34226 ft | 383 kts | 245° |
| 2026-05-06 20:14 | 39.59000 | -101.14387 | 34221 ft | 383 kts | 245° |
| 2026-05-06 20:15 | 39.56706 | -101.20644 | 34216 ft | 384 kts | 245° |
| 2026-05-06 20:15 | 39.54404 | -101.26909 | 34213 ft | 385 kts | 245° |
| 2026-05-06 20:16 | 39.52094 | -101.33183 | 34210 ft | 386 kts | 245° |
| 2026-05-06 20:16 | 39.49776 | -101.39470 | 34206 ft | 387 kts | 245° |
| 2026-05-06 20:17 | 39.47472 | -101.45722 | 34202 ft | 388 kts | 245° |
| 2026-05-06 20:17 | 39.45147 | -101.52043 | 34198 ft | 388 kts | 245° |
| 2026-05-06 20:18 | 39.42826 | -101.58361 | 34193 ft | 389 kts | 245° |
| 2026-05-06 20:18 | 39.40486 | -101.64679 | 34190 ft | 390 kts | 245° |
| 2026-05-06 20:19 | 39.38046 | -101.70946 | 34190 ft | 391 kts | 242° |
| 2026-05-06 20:19 | 39.35243 | -101.76976 | 34190 ft | 391 kts | 240° |
| 2026-05-06 20:20 | 39.32443 | -101.82958 | 34189 ft | 391 kts | 240° |
| 2026-05-06 20:20 | 39.29634 | -101.88981 | 34190 ft | 391 kts | 240° |
| 2026-05-06 20:21 | 39.26818 | -101.94998 | 34189 ft | 391 kts | 240° |
| 2026-05-06 20:21 | 39.23998 | -102.01007 | 34190 ft | 391 kts | 240° |
| 2026-05-06 20:22 | 39.21173 | -102.07038 | 34190 ft | 394 kts | 240° |
| 2026-05-06 20:22 | 39.18322 | -102.13104 | 34189 ft | 396 kts | 240° |
| 2026-05-06 20:23 | 39.15469 | -102.19151 | 34189 ft | 397 kts | 240° |
| 2026-05-06 20:23 | 39.12597 | -102.25228 | 34190 ft | 397 kts | 240° |
| 2026-05-06 20:24 | 39.09723 | -102.31303 | 34190 ft | 397 kts | 240° |
| 2026-05-06 20:24 | 39.06844 | -102.37379 | 34190 ft | 397 kts | 240° |
| 2026-05-06 20:25 | 39.03963 | -102.43447 | 34191 ft | 397 kts | 240° |
| 2026-05-06 20:25 | 39.01075 | -102.49519 | 34191 ft | 398 kts | 240° |
| 2026-05-06 20:26 | 38.98203 | -102.55548 | 34192 ft | 398 kts | 240° |
| 2026-05-06 20:26 | 38.95315 | -102.61604 | 34193 ft | 398 kts | 240° |
| 2026-05-06 20:27 | 38.92426 | -102.67665 | 34194 ft | 398 kts | 240° |
| 2026-05-06 20:27 | 38.89539 | -102.73727 | 34196 ft | 398 kts | 240° |
| 2026-05-06 20:28 | 38.86653 | -102.79790 | 34198 ft | 398 kts | 240° |
| 2026-05-06 20:28 | 38.83769 | -102.85808 | 34199 ft | 398 kts | 240° |
| 2026-05-06 20:29 | 38.80862 | -102.91857 | 34199 ft | 399 kts | 240° |
| 2026-05-06 20:29 | 38.77945 | -102.97904 | 34201 ft | 399 kts | 240° |
| 2026-05-06 20:30 | 38.73554 | -103.06974 | 34202 ft | 399 kts | 240° |
| 2026-05-06 20:31 | 38.70620 | -103.13022 | 34202 ft | 399 kts | 240° |
| 2026-05-06 20:31 | 38.67683 | -103.19066 | 34203 ft | 400 kts | 240° |
| 2026-05-06 20:32 | 38.64744 | -103.25100 | 34203 ft | 400 kts | 240° |
| 2026-05-06 20:32 | 38.61816 | -103.31103 | 34202 ft | 400 kts | 240° |
| 2026-05-06 20:33 | 38.58866 | -103.37139 | 34204 ft | 400 kts | 240° |
| 2026-05-06 20:33 | 38.55918 | -103.43162 | 34205 ft | 399 kts | 240° |
| 2026-05-06 20:34 | 38.52970 | -103.49172 | 34205 ft | 399 kts | 239° |
| 2026-05-06 20:34 | 38.50020 | -103.55179 | 34205 ft | 399 kts | 239° |
| 2026-05-06 20:35 | 38.47079 | -103.61175 | 34206 ft | 398 kts | 239° |
| 2026-05-06 20:35 | 38.44159 | -103.67129 | 34206 ft | 398 kts | 239° |
| 2026-05-06 20:36 | 38.41225 | -103.73112 | 34205 ft | 397 kts | 239° |
| 2026-05-06 20:36 | 38.38284 | -103.79075 | 34206 ft | 397 kts | 239° |
| 2026-05-06 20:37 | 38.35615 | -103.84460 | 34206 ft | 397 kts | 239° |
| 2026-05-06 20:37 | 38.33143 | -103.89431 | 34207 ft | 396 kts | 239° |
| 2026-05-06 20:38 | 38.30690 | -103.94356 | 34206 ft | 396 kts | 239° |
| 2026-05-06 20:38 | 38.27738 | -104.00278 | 34206 ft | 395 kts | 239° |
| 2026-05-06 20:39 | 38.24788 | -104.06197 | 34207 ft | 396 kts | 239° |
| 2026-05-06 20:39 | 38.21844 | -104.12086 | 34207 ft | 396 kts | 239° |
| 2026-05-06 20:40 | 38.18881 | -104.18001 | 34207 ft | 396 kts | 239° |
| 2026-05-06 20:40 | 38.15917 | -104.23906 | 34207 ft | 396 kts | 239° |
| 2026-05-06 20:41 | 38.12950 | -104.29805 | 34207 ft | 397 kts | 239° |
| 2026-05-06 20:41 | 38.09973 | -104.35721 | 34211 ft | 397 kts | 239° |
| 2026-05-06 20:42 | 38.06991 | -104.41633 | 34211 ft | 398 kts | 239° |
| 2026-05-06 20:42 | 38.04000 | -104.47557 | 34211 ft | 399 kts | 239° |
| 2026-05-06 20:43 | 38.00998 | -104.53489 | 34210 ft | 400 kts | 239° |
| 2026-05-06 20:43 | 37.97985 | -104.59430 | 34213 ft | 400 kts | 239° |
| 2026-05-06 20:44 | 37.94995 | -104.65312 | 34215 ft | 399 kts | 239° |
| 2026-05-06 20:44 | 37.91994 | -104.71213 | 34216 ft | 398 kts | 239° |
| 2026-05-06 20:45 | 37.88986 | -104.77117 | 34219 ft | 398 kts | 239° |
| 2026-05-06 20:45 | 37.85975 | -104.83017 | 34222 ft | 399 kts | 239° |
| 2026-05-06 20:46 | 37.82955 | -104.88926 | 34227 ft | 400 kts | 239° |
| 2026-05-06 20:46 | 37.79926 | -104.94841 | 34231 ft | 401 kts | 239° |
| 2026-05-06 20:47 | 37.76901 | -105.00736 | 34235 ft | 402 kts | 239° |
| 2026-05-06 20:47 | 37.73841 | -105.06689 | 34240 ft | 404 kts | 239° |
| 2026-05-06 20:48 | 37.70776 | -105.12645 | 34245 ft | 405 kts | 239° |
| 2026-05-06 20:48 | 37.67696 | -105.18616 | 34244 ft | 406 kts | 239° |
| 2026-05-06 20:49 | 37.64601 | -105.24606 | 34242 ft | 408 kts | 239° |
| 2026-05-06 20:49 | 37.61496 | -105.30608 | 34238 ft | 409 kts | 239° |
| 2026-05-06 20:50 | 37.58380 | -105.36625 | 34235 ft | 410 kts | 239° |
| 2026-05-06 20:50 | 37.55272 | -105.42618 | 34224 ft | 411 kts | 239° |
| 2026-05-06 20:51 | 37.52137 | -105.48662 | 34206 ft | 412 kts | 239° |
| 2026-05-06 20:51 | 37.48988 | -105.54726 | 34182 ft | 413 kts | 239° |
| 2026-05-06 20:52 | 37.45832 | -105.60780 | 34155 ft | 414 kts | 239° |
| 2026-05-06 20:52 | 37.42653 | -105.66847 | 34135 ft | 415 kts | 239° |
| 2026-05-06 20:53 | 37.39486 | -105.72877 | 34122 ft | 415 kts | 239° |
| 2026-05-06 20:53 | 37.36298 | -105.78936 | 34115 ft | 415 kts | 239° |
| 2026-05-06 20:54 | 37.32999 | -105.84913 | 34115 ft | 416 kts | 237° |
| 2026-05-06 20:54 | 37.29923 | -105.90127 | 34111 ft | 416 kts | 236° |
| 2026-05-06 20:55 | 37.26750 | -105.95511 | 34109 ft | 416 kts | 236° |
| 2026-05-06 20:55 | 37.23306 | -106.01345 | 34113 ft | 415 kts | 237° |
| 2026-05-06 20:56 | 37.19850 | -106.07208 | 34118 ft | 419 kts | 237° |
| 2026-05-06 20:56 | 37.16382 | -106.13095 | 34122 ft | 421 kts | 237° |
| 2026-05-06 20:57 | 37.12904 | -106.18968 | 34126 ft | 422 kts | 236° |
| 2026-05-06 20:57 | 37.09392 | -106.24885 | 34131 ft | 422 kts | 236° |
| 2026-05-06 20:58 | 37.05881 | -106.30796 | 34137 ft | 422 kts | 236° |
| 2026-05-06 20:58 | 37.02372 | -106.36687 | 34140 ft | 422 kts | 236° |
| 2026-05-06 20:59 | 36.98883 | -106.42537 | 34142 ft | 422 kts | 236° |
| 2026-05-06 20:59 | 36.95352 | -106.48447 | 34143 ft | 422 kts | 236° |
| 2026-05-06 21:00 | 36.91859 | -106.54283 | 34143 ft | 421 kts | 236° |
| 2026-05-06 21:00 | 36.88344 | -106.60146 | 34142 ft | 421 kts | 236° |
| 2026-05-06 21:01 | 36.84826 | -106.66003 | 34104 ft | 422 kts | 236° |
| 2026-05-06 21:01 | 36.81305 | -106.71856 | 34092 ft | 421 kts | 236° |
| 2026-05-06 21:02 | 36.77784 | -106.77705 | 34091 ft | 421 kts | 236° |
| 2026-05-06 21:02 | 36.74261 | -106.83543 | 34108 ft | 421 kts | 236° |
| 2026-05-06 21:03 | 36.70730 | -106.89383 | 34121 ft | 422 kts | 236° |
| 2026-05-06 21:03 | 36.67190 | -106.95225 | 34121 ft | 422 kts | 236° |
| 2026-05-06 21:04 | 36.64358 | -106.99901 | 34120 ft | 423 kts | 236° |
| 2026-05-06 21:04 | 36.61323 | -107.04896 | 34118 ft | 423 kts | 236° |
| 2026-05-06 21:05 | 36.57770 | -107.10745 | 34087 ft | 423 kts | 236° |
| 2026-05-06 21:05 | 36.54212 | -107.16583 | 34078 ft | 423 kts | 236° |
| 2026-05-06 21:06 | 36.50672 | -107.22388 | 34077 ft | 424 kts | 236° |
| 2026-05-06 21:06 | 36.47108 | -107.28231 | 34076 ft | 424 kts | 236° |
| 2026-05-06 21:07 | 36.43536 | -107.34079 | 34076 ft | 424 kts | 236° |
| 2026-05-06 21:07 | 36.39969 | -107.39917 | 34076 ft | 424 kts | 236° |
| 2026-05-06 21:08 | 36.36400 | -107.45758 | 34077 ft | 424 kts | 236° |
| 2026-05-06 21:08 | 36.32820 | -107.51585 | 34082 ft | 424 kts | 236° |
| 2026-05-06 21:09 | 36.29259 | -107.57360 | 34084 ft | 424 kts | 236° |
| 2026-05-06 21:09 | 36.25665 | -107.63176 | 34086 ft | 424 kts | 236° |
| 2026-05-06 21:10 | 36.22074 | -107.68983 | 34086 ft | 424 kts | 236° |
| 2026-05-06 21:10 | 36.18489 | -107.74767 | 34088 ft | 423 kts | 236° |
| 2026-05-06 21:11 | 36.14892 | -107.80554 | 34080 ft | 423 kts | 236° |
| 2026-05-06 21:11 | 36.11303 | -107.86320 | 34080 ft | 423 kts | 236° |
| 2026-05-06 21:12 | 36.07735 | -107.92046 | 34087 ft | 423 kts | 236° |
| 2026-05-06 21:12 | 36.04139 | -107.97808 | 34093 ft | 423 kts | 236° |
| 2026-05-06 21:13 | 36.00545 | -108.03555 | 34095 ft | 423 kts | 236° |
| 2026-05-06 21:13 | 35.96943 | -108.09301 | 34096 ft | 423 kts | 236° |
| 2026-05-06 21:14 | 35.93340 | -108.15041 | 34092 ft | 423 kts | 236° |
| 2026-05-06 21:14 | 35.89742 | -108.20772 | 34098 ft | 422 kts | 236° |
| 2026-05-06 21:15 | 35.86140 | -108.26496 | 34105 ft | 422 kts | 235° |
| 2026-05-06 21:15 | 35.82543 | -108.32216 | 34107 ft | 422 kts | 236° |
| 2026-05-06 21:16 | 35.78954 | -108.37920 | 34108 ft | 421 kts | 236° |
| 2026-05-06 21:16 | 35.75706 | -108.43081 | 34108 ft | 421 kts | 236° |
| 2026-05-06 21:17 | 35.72097 | -108.48805 | 34109 ft | 420 kts | 235° |
| 2026-05-06 21:17 | 35.68521 | -108.54443 | 34109 ft | 420 kts | 235° |
| 2026-05-06 21:18 | 35.64914 | -108.60113 | 34109 ft | 420 kts | 235° |
| 2026-05-06 21:18 | 35.61312 | -108.65764 | 34111 ft | 419 kts | 235° |
| 2026-05-06 21:19 | 35.57708 | -108.71408 | 34110 ft | 419 kts | 235° |
| 2026-05-06 21:19 | 35.54133 | -108.77003 | 34110 ft | 419 kts | 235° |
| 2026-05-06 21:20 | 35.50534 | -108.82625 | 34109 ft | 419 kts | 234° |
| 2026-05-06 21:20 | 35.46327 | -108.87586 | 34111 ft | 428 kts | 216° |
| 2026-05-06 21:21 | 35.40994 | -108.90959 | 34117 ft | 433 kts | 209° |
| 2026-05-06 21:21 | 35.35506 | -108.94014 | 34110 ft | 432 kts | 209° |
| 2026-05-06 21:22 | 35.30955 | -108.96527 | 34112 ft | 431 kts | 209° |
| 2026-05-06 21:22 | 35.24602 | -109.00024 | 34113 ft | 430 kts | 208° |
| 2026-05-06 21:23 | 35.19139 | -109.03026 | 34112 ft | 429 kts | 209° |
| 2026-05-06 21:23 | 35.14575 | -109.05529 | 34113 ft | 429 kts | 209° |
| 2026-05-06 21:24 | 35.09140 | -109.08515 | 34109 ft | 428 kts | 209° |
| 2026-05-06 21:24 | 35.03724 | -109.11494 | 34109 ft | 426 kts | 209° |
| 2026-05-06 21:25 | 34.98349 | -109.14448 | 34105 ft | 425 kts | 209° |
| 2026-05-06 21:25 | 34.93969 | -109.17400 | 34107 ft | 418 kts | 219° |
| 2026-05-06 21:26 | 34.89341 | -109.21658 | 34107 ft | 416 kts | 221° |
| 2026-05-06 21:26 | 34.85160 | -109.25488 | 34107 ft | 416 kts | 220° |
| 2026-05-06 21:27 | 34.80491 | -109.29652 | 34107 ft | 415 kts | 220° |